createdAt,value
2022-10-24T00:01:58.490Z,95941.59
2022-10-24T00:04:27.439Z,95975.81
2022-10-24T00:06:56.253Z,95988.81
2022-10-24T00:09:25.025Z,95988.19
2022-10-24T00:11:53.905Z,96012.00
2022-10-24T00:14:22.884Z,96025.66
2022-10-24T00:16:52.518Z,96028.16
2022-10-24T00:19:21.485Z,96027.84
2022-10-24T00:21:50.389Z,96026.13
2022-10-24T00:24:19.548Z,96030.53
2022-10-24T00:26:48.806Z,96040.72
2022-10-24T00:29:17.593Z,96026.75
2022-10-24T00:31:46.524Z,96063.09
2022-10-24T00:34:15.678Z,96074.69
2022-10-24T00:36:44.567Z,96097.09
2022-10-24T00:39:13.783Z,96084.88
2022-10-24T00:41:44.556Z,96084.09
2022-10-24T00:44:27.654Z,96127.78
2022-10-24T00:47:05.944Z,96149.88
2022-10-24T00:49:52.139Z,96136.41
2022-10-24T00:52:27.373Z,96148.16
2022-10-24T00:54:59.639Z,96177.09
2022-10-24T00:57:48.869Z,96193.53
2022-10-24T01:00:31.439Z,96201.97
2022-10-24T01:03:01.478Z,96217.00
2022-10-24T01:05:37.808Z,96224.03
2022-10-24T01:08:42.116Z,96215.38
2022-10-24T01:11:56.614Z,96230.22
2022-10-24T01:14:53.989Z,96249.75
2022-10-24T01:17:25.692Z,96263.69
2022-10-24T01:20:31.848Z,96275.25
2022-10-24T01:23:16.021Z,96265.56
2022-10-24T01:25:53.936Z,96281.53
2022-10-24T01:28:30.194Z,96304.63
2022-10-24T01:31:18.790Z,96322.75
2022-10-24T01:34:02.589Z,96311.34
2022-10-24T01:36:39.688Z,96315.47
2022-10-24T01:39:17.505Z,96339.88
2022-10-24T01:41:48.696Z,96343.44
2022-10-24T01:44:24.200Z,96349.88
2022-10-24T01:47:04.312Z,96358.28
2022-10-24T01:49:37.140Z,96365.19
2022-10-24T01:54:44.461Z,96374.50
2022-10-24T01:57:15.093Z,96376.84
2022-10-24T01:59:49.393Z,96389.72
2022-10-24T02:02:42.595Z,96375.97
2022-10-24T02:05:11.874Z,96385.47
2022-10-24T02:07:43.824Z,96398.44
2022-10-24T02:10:21.811Z,96403.56
2022-10-24T02:12:58.491Z,96406.25
2022-10-24T02:15:35.717Z,96414.84
2022-10-24T02:18:04.871Z,96413.41
2022-10-24T02:20:43.243Z,96420.94
2022-10-24T02:23:35.870Z,96418.50
2022-10-24T02:26:09.945Z,96413.59
2022-10-24T02:28:48.077Z,96420.56
2022-10-24T02:31:22.433Z,96384.22
2022-10-24T02:33:53.719Z,96426.84
2022-10-24T02:36:28.332Z,96427.78
2022-10-24T02:38:58.663Z,96449.44
2022-10-24T02:41:32.053Z,96455.59
2022-10-24T02:44:02.654Z,96468.13
2022-10-24T02:46:33.525Z,96483.06
2022-10-24T02:49:04.271Z,96466.56
2022-10-24T02:51:39.173Z,96482.47
2022-10-24T02:54:08.745Z,96490.75
2022-10-24T02:56:42.543Z,96496.81
2022-10-24T02:59:11.335Z,96487.75
2022-10-24T03:01:40.679Z,96497.41
2022-10-24T03:04:10.549Z,96498.91
2022-10-24T03:06:39.443Z,96506.41
2022-10-24T03:09:08.382Z,96509.19
2022-10-24T03:11:37.459Z,96509.97
2022-10-24T03:14:06.749Z,96511.25
2022-10-24T03:16:35.548Z,96526.00
2022-10-24T03:19:04.565Z,96525.78
2022-10-24T03:21:33.771Z,96503.97
2022-10-24T03:24:02.571Z,96536.56
2022-10-24T03:26:31.397Z,96533.97
2022-10-24T03:29:00.772Z,96540.25
2022-10-24T03:31:31.292Z,96550.03
2022-10-24T03:34:00.203Z,96545.78
2022-10-24T03:36:29.006Z,96551.88
2022-10-24T03:38:58.089Z,96548.91
2022-10-24T03:41:27.061Z,96549.41
2022-10-24T03:43:56.637Z,96545.59
2022-10-24T03:46:25.503Z,96535.47
2022-10-24T03:48:54.989Z,96546.84
2022-10-24T03:51:23.884Z,96547.78
2022-10-24T03:53:53.366Z,96543.16
2022-10-24T03:56:22.387Z,96534.91
2022-10-24T03:58:51.328Z,96542.31
2022-10-24T04:01:20.870Z,96537.72
2022-10-24T04:03:49.981Z,96556.91
2022-10-24T04:06:19.607Z,96565.22
2022-10-24T04:08:48.646Z,96552.38
2022-10-24T04:11:18.411Z,96582.97
2022-10-24T04:13:47.656Z,96580.16
2022-10-24T04:16:18.592Z,96597.41
2022-10-24T04:18:47.667Z,96592.31
2022-10-24T04:21:21.485Z,96591.34
2022-10-24T04:23:51.035Z,96594.88
2022-10-24T04:26:20.165Z,96605.44
2022-10-24T04:28:48.999Z,96604.78
2022-10-24T04:31:21.021Z,96596.81
2022-10-24T04:33:52.407Z,96608.34
2022-10-24T04:36:21.880Z,96598.91
2022-10-24T04:38:50.741Z,96606.91
2022-10-24T04:41:19.536Z,96618.34
2022-10-24T04:43:48.310Z,96636.75
2022-10-24T04:46:17.090Z,96619.13
2022-10-24T04:48:46.101Z,96640.78
2022-10-24T04:51:18.528Z,96636.03
2022-10-24T04:53:51.752Z,96641.72
2022-10-24T04:56:20.782Z,96647.47
2022-10-24T04:58:51.049Z,96649.03
2022-10-24T05:01:20.669Z,96649.19
2022-10-24T05:03:50.648Z,96636.56
2022-10-24T05:06:19.666Z,96649.13
2022-10-24T05:08:49.656Z,96643.69
2022-10-24T05:11:18.431Z,96655.19
2022-10-24T05:13:47.327Z,96658.91
2022-10-24T05:16:16.102Z,96652.09
2022-10-24T05:18:45.154Z,96653.44
2022-10-24T05:21:14.664Z,96661.44
2022-10-24T05:23:43.484Z,96651.59
2022-10-24T05:26:12.342Z,96656.16
2022-10-24T05:28:41.072Z,96666.09
2022-10-24T05:31:09.877Z,96671.03
2022-10-24T05:33:38.662Z,96669.88
2022-10-24T05:36:07.890Z,96672.63
2022-10-24T05:38:37.528Z,96690.78
2022-10-24T05:41:06.413Z,96665.47
2022-10-24T05:43:35.266Z,96675.13
2022-10-24T05:46:04.685Z,96667.03
2022-10-24T05:48:33.586Z,96669.09
2022-10-24T05:51:02.640Z,96673.66
2022-10-24T05:53:31.611Z,96683.91
2022-10-24T05:56:00.481Z,96692.38
2022-10-24T05:58:29.271Z,96695.13
2022-10-24T06:00:59.492Z,96694.97
2022-10-24T06:03:28.921Z,96688.56
2022-10-24T06:05:57.703Z,96685.03
2022-10-24T06:08:26.506Z,96674.25
2022-10-24T06:10:55.377Z,96682.25
2022-10-24T06:13:24.409Z,96678.88
2022-10-24T06:15:53.390Z,96688.28
2022-10-24T06:18:22.255Z,96689.47
2022-10-24T06:20:54.069Z,96702.22
2022-10-24T06:23:25.675Z,96706.41
2022-10-24T06:25:54.636Z,96714.94
2022-10-24T06:28:23.461Z,96724.66
2022-10-24T06:30:54.821Z,96713.91
2022-10-24T06:33:24.588Z,96727.50
2022-10-24T06:35:54.662Z,96730.25
2022-10-24T06:38:23.435Z,96724.06
2022-10-24T06:40:52.192Z,96736.72
2022-10-24T06:43:21.359Z,96742.72
2022-10-24T06:45:50.237Z,96747.00
2022-10-24T06:48:19.620Z,96744.75
2022-10-24T06:50:48.362Z,96713.00
2022-10-24T06:53:17.322Z,96738.69
2022-10-24T06:55:46.129Z,96746.84
2022-10-24T06:58:14.928Z,96751.13
2022-10-24T07:00:45.536Z,96756.22
2022-10-24T07:03:17.623Z,96748.94
2022-10-24T07:05:47.486Z,96743.47
2022-10-24T07:08:16.265Z,96754.78
2022-10-24T07:10:45.172Z,96768.19
2022-10-24T07:13:13.988Z,96767.50
2022-10-24T07:15:42.768Z,96753.69
2022-10-24T07:18:16.793Z,96769.00
2022-10-24T07:20:45.746Z,96753.81
2022-10-24T07:23:15.635Z,96759.50
2022-10-24T07:25:44.814Z,96752.91
2022-10-24T07:28:13.936Z,96766.81
2022-10-24T07:30:45.686Z,96760.31
2022-10-24T07:33:17.148Z,96768.69
2022-10-24T07:35:46.382Z,96767.78
2022-10-24T07:38:17.852Z,96764.69
2022-10-24T07:40:47.712Z,96782.50
2022-10-24T07:43:17.241Z,96775.25
2022-10-24T07:45:50.544Z,96759.91
2022-10-24T07:48:21.860Z,96763.97
2022-10-24T07:50:50.738Z,96764.63
2022-10-24T07:53:19.636Z,96760.00
2022-10-24T07:55:48.392Z,96767.31
2022-10-24T07:58:17.713Z,96755.44
2022-10-24T08:00:48.126Z,96768.56
2022-10-24T08:03:18.180Z,96766.09
2022-10-24T08:05:48.520Z,96770.44
2022-10-24T08:08:35.004Z,96771.91
2022-10-24T08:11:16.052Z,96783.09
2022-10-24T08:13:45.665Z,96777.19
2022-10-24T08:16:17.059Z,96783.69
2022-10-24T08:18:46.662Z,96796.41
2022-10-24T08:21:18.124Z,96784.53
2022-10-24T08:23:50.519Z,96801.25
2022-10-24T08:26:22.100Z,96803.72
2022-10-24T08:28:52.031Z,96801.59
2022-10-24T08:31:22.690Z,96803.88
2022-10-24T08:33:56.323Z,96803.97
2022-10-24T08:36:30.872Z,96812.31
2022-10-24T08:39:00.369Z,96808.41
2022-10-24T08:41:34.173Z,96811.44
2022-10-24T08:44:08.175Z,96819.25
2022-10-24T08:46:54.610Z,96825.81
2022-10-24T08:49:43.265Z,96817.78
2022-10-24T08:52:41.679Z,96831.06
2022-10-24T08:55:49.206Z,96820.47
2022-10-24T08:58:32.941Z,96826.19
2022-10-24T09:01:08.541Z,96833.19
2022-10-24T09:03:55.606Z,96824.50
2022-10-24T09:06:28.756Z,96836.88
2022-10-24T09:09:02.762Z,96839.03
2022-10-24T09:11:40.605Z,96831.38
2022-10-24T09:14:25.187Z,96836.91
2022-10-24T09:17:24.346Z,96840.56
2022-10-24T09:19:59.213Z,96845.28
2022-10-24T09:22:33.978Z,96850.63
2022-10-24T09:25:08.691Z,96856.88
2022-10-24T09:27:40.867Z,96862.81
2022-10-24T09:30:21.032Z,96861.22
2022-10-24T09:32:50.133Z,96854.03
2022-10-24T09:35:25.359Z,96876.16
2022-10-24T09:37:58.066Z,96876.25
2022-10-24T09:40:30.960Z,96892.88
2022-10-24T09:43:22.651Z,96891.50
2022-10-24T09:46:01.677Z,96912.09
2022-10-24T09:49:07.779Z,96917.50
2022-10-24T09:51:51.383Z,96926.00
2022-10-24T09:54:20.156Z,96923.50
2022-10-24T09:57:03.040Z,96919.94
2022-10-24T10:00:07.054Z,96926.13
2022-10-24T10:02:37.204Z,96925.44
2022-10-24T10:05:06.195Z,96942.41
2022-10-24T10:07:38.176Z,96940.38
2022-10-24T10:10:28.498Z,96931.69
2022-10-24T10:13:04.994Z,96929.88
2022-10-24T10:15:39.581Z,96921.75
2022-10-24T10:18:43.038Z,96934.75
2022-10-24T10:21:21.250Z,96942.72
2022-10-24T10:23:53.711Z,96949.88
2022-10-24T10:26:45.823Z,96955.94
2022-10-24T10:29:17.611Z,96959.13
2022-10-24T10:32:11.932Z,96960.19
2022-10-24T10:34:50.440Z,96963.09
2022-10-24T10:37:19.543Z,96974.47
2022-10-24T10:40:16.104Z,96976.59
2022-10-24T10:42:44.875Z,96972.84
2022-10-24T10:45:30.970Z,96972.59
2022-10-24T10:48:18.804Z,96984.50
2022-10-24T10:51:14.496Z,96984.50
2022-10-24T10:54:12.770Z,96993.22
2022-10-24T10:57:01.232Z,96995.59
2022-10-24T11:00:02.254Z,97005.38
2022-10-24T11:03:05.001Z,97008.00
2022-10-24T11:05:37.897Z,97019.66
2022-10-24T11:08:23.010Z,97016.78
2022-10-24T11:11:03.921Z,97012.28
2022-10-24T11:13:40.770Z,97009.91
2022-10-24T11:16:16.767Z,97013.34
2022-10-24T11:18:51.990Z,97008.84
2022-10-24T11:21:23.964Z,97020.50
2022-10-24T11:23:58.640Z,97013.88
2022-10-24T11:26:37.037Z,97023.91
2022-10-24T11:29:32.027Z,97029.44
2022-10-24T11:32:08.589Z,97022.81
2022-10-24T11:34:47.822Z,97032.88
2022-10-24T11:37:25.621Z,97029.94
2022-10-24T11:40:14.453Z,97025.94
2022-10-24T11:43:22.709Z,97025.16
2022-10-24T11:46:15.073Z,97036.25
2022-10-24T11:48:58.811Z,97042.84
2022-10-24T11:51:35.222Z,97052.88
2022-10-24T11:54:46.082Z,97053.69
2022-10-24T11:57:24.376Z,97056.59
2022-10-24T11:59:54.726Z,97063.72
2022-10-24T12:03:12.318Z,97057.94
2022-10-24T12:05:56.402Z,97072.25
2022-10-24T12:08:45.832Z,97075.72
2022-10-24T12:11:26.662Z,97087.94
2022-10-24T12:14:24.956Z,97084.03
2022-10-24T12:17:13.880Z,97081.09
2022-10-24T12:19:45.844Z,97083.75
2022-10-24T12:22:22.557Z,97087.47
2022-10-24T12:25:18.343Z,97081.91
2022-10-24T12:27:55.542Z,97083.72
2022-10-24T12:30:27.250Z,97073.66
2022-10-24T12:33:07.874Z,97092.41
2022-10-24T12:35:49.021Z,97097.16
2022-10-24T12:38:40.936Z,97106.91
2022-10-24T12:41:34.279Z,97111.72
2022-10-24T12:44:26.782Z,97114.63
2022-10-24T12:46:55.904Z,97119.16
2022-10-24T12:49:33.450Z,97116.78
2022-10-24T12:52:48.351Z,97113.91
2022-10-24T12:55:39.900Z,97114.44
2022-10-24T12:58:29.767Z,97108.63
2022-10-24T13:01:02.871Z,97111.28
2022-10-24T13:03:50.159Z,97117.63
2022-10-24T13:06:25.767Z,97110.44
2022-10-24T13:09:10.190Z,97116.81
2022-10-24T13:12:02.208Z,97115.97
2022-10-24T13:14:37.093Z,97109.63
2022-10-24T13:17:41.473Z,97122.31
2022-10-24T13:20:24.421Z,97121.22
2022-10-24T13:23:03.794Z,97108.75
2022-10-24T13:25:37.787Z,97128.63
2022-10-24T13:28:24.921Z,97136.81
2022-10-24T13:30:59.871Z,97133.94
2022-10-24T13:33:36.852Z,97138.69
2022-10-24T13:36:27.800Z,97138.16
2022-10-24T13:38:58.715Z,97125.16
2022-10-24T13:41:37.577Z,97136.81
2022-10-24T13:44:12.703Z,97133.34
2022-10-24T13:46:54.690Z,97140.72
2022-10-24T13:49:31.388Z,97142.81
2022-10-24T13:52:16.596Z,97152.34
2022-10-24T13:54:51.280Z,97148.63
2022-10-24T13:57:38.086Z,97158.13
2022-10-24T14:00:22.414Z,97151.97
2022-10-24T14:02:52.358Z,97158.59
2022-10-24T14:05:26.813Z,97151.97
2022-10-24T14:07:55.736Z,97147.72
2022-10-24T14:10:26.858Z,97150.91
2022-10-24T14:13:00.323Z,97140.31
2022-10-24T14:15:33.716Z,97158.84
2022-10-24T14:18:14.779Z,97166.53
2022-10-24T14:20:44.567Z,97166.28
2022-10-24T14:23:42.825Z,97166.53
2022-10-24T14:26:19.526Z,97164.38
2022-10-24T14:29:00.145Z,97166.75
2022-10-24T14:31:38.119Z,97160.63
2022-10-24T14:34:10.241Z,97154.81
2022-10-24T14:36:40.129Z,97164.56
2022-10-24T14:39:13.692Z,97175.91
2022-10-24T14:41:43.004Z,97179.59
2022-10-24T14:44:16.601Z,97178.03
2022-10-24T14:46:47.428Z,97177.47
2022-10-24T14:49:28.496Z,97173.47
2022-10-24T14:52:02.430Z,97173.22
2022-10-24T14:54:35.678Z,97181.13
2022-10-24T14:57:10.294Z,97170.28
2022-10-24T14:59:46.504Z,97167.13
2022-10-24T15:02:25.918Z,97173.56
2022-10-24T15:05:23.432Z,97167.06
2022-10-24T15:08:22.088Z,97166.38
2022-10-24T15:11:01.474Z,97177.03
2022-10-24T15:13:33.964Z,97176.53
2022-10-24T15:16:03.044Z,97169.94
2022-10-24T15:18:37.458Z,97174.22
2022-10-24T15:21:13.616Z,97177.44
2022-10-24T15:23:50.304Z,97177.72
2022-10-24T15:26:20.741Z,97178.00
2022-10-24T15:29:05.900Z,97190.72
2022-10-24T15:31:39.290Z,97189.91
2022-10-24T15:34:09.516Z,97177.72
2022-10-24T15:36:42.753Z,97183.78
2022-10-24T15:39:11.559Z,97190.91
2022-10-24T15:41:41.172Z,97189.03
2022-10-24T15:44:21.635Z,97185.28
2022-10-24T15:46:50.849Z,97182.84
2022-10-24T15:49:19.829Z,97179.09
2022-10-24T15:51:50.854Z,97172.94
2022-10-24T15:54:22.057Z,97178.19
2022-10-24T15:56:51.536Z,97189.25
2022-10-24T15:59:20.701Z,97182.84
2022-10-24T16:01:53.867Z,97179.09
2022-10-24T16:04:23.801Z,97187.28
2022-10-24T16:06:53.222Z,97187.50
2022-10-24T16:09:28.148Z,97191.50
2022-10-24T16:11:57.014Z,97178.28
2022-10-24T16:14:30.876Z,97192.38
2022-10-24T16:17:00.519Z,97179.97
2022-10-24T16:19:29.524Z,97184.53
2022-10-24T16:21:59.019Z,97191.69
2022-10-24T16:24:29.422Z,97182.72
2022-10-24T16:26:58.341Z,97184.28
2022-10-24T16:29:27.172Z,97182.13
2022-10-24T16:31:56.006Z,97185.78
2022-10-24T16:34:26.804Z,97187.34
2022-10-24T16:36:56.329Z,97189.16
2022-10-24T16:39:25.266Z,97190.66
2022-10-24T16:41:55.775Z,97185.06
2022-10-24T16:44:24.562Z,97189.53
2022-10-24T16:46:54.646Z,97180.53
2022-10-24T16:49:24.245Z,97182.06
2022-10-24T16:51:53.016Z,97173.28
2022-10-24T16:54:23.380Z,97176.41
2022-10-24T16:56:54.050Z,97173.75
2022-10-24T16:59:23.263Z,97181.88
2022-10-24T17:01:52.494Z,97190.81
2022-10-24T17:04:22.776Z,97190.53
2022-10-24T17:06:51.607Z,97185.75
2022-10-24T17:09:20.328Z,97175.97
2022-10-24T17:11:49.137Z,97186.75
2022-10-24T17:14:18.083Z,97188.06
2022-10-24T17:16:46.933Z,97189.03
2022-10-24T17:19:16.906Z,97183.22
2022-10-24T17:21:48.645Z,97194.00
2022-10-24T17:24:20.462Z,97204.03
2022-10-24T17:26:50.170Z,97199.53
2022-10-24T17:29:25.717Z,97201.66
2022-10-24T17:31:55.498Z,97198.25
2022-10-24T17:34:25.450Z,97206.94
2022-10-24T17:37:11.496Z,97206.47
2022-10-24T17:39:48.677Z,97202.81
2022-10-24T17:42:18.393Z,97200.94
2022-10-24T17:44:48.255Z,97197.22
2022-10-24T17:47:17.735Z,97210.94
2022-10-24T17:49:47.038Z,97212.22
2022-10-24T17:52:23.078Z,97196.38
2022-10-24T17:54:52.283Z,97195.31
2022-10-24T17:57:21.168Z,97189.75
2022-10-24T17:59:49.924Z,97202.19
2022-10-24T18:02:19.211Z,97193.16
2022-10-24T18:04:48.547Z,97193.72
2022-10-24T18:07:17.335Z,97197.94
2022-10-24T18:09:46.259Z,97202.13
2022-10-24T18:12:15.753Z,97188.72
2022-10-24T18:14:44.592Z,97200.56
2022-10-24T18:17:13.494Z,97193.72
2022-10-24T18:19:42.347Z,97203.19
2022-10-24T18:22:11.229Z,97199.19
2022-10-24T18:24:40.343Z,97198.16
2022-10-24T18:27:10.892Z,97194.19
2022-10-24T18:32:15.195Z,97203.44
2022-10-24T18:34:44.030Z,97208.94
2022-10-24T18:37:13.400Z,97201.84
2022-10-24T18:39:42.228Z,97199.47
2022-10-24T18:42:48.427Z,97194.97
2022-10-24T18:45:24.703Z,97194.66
2022-10-24T18:47:54.934Z,97200.50
2022-10-24T18:50:25.532Z,97205.22
2022-10-24T18:53:12.593Z,97210.78
2022-10-24T18:55:41.659Z,97198.63
2022-10-24T18:58:16.913Z,97206.03
2022-10-24T19:00:47.619Z,97202.34
2022-10-24T19:03:19.395Z,97207.13
2022-10-24T19:05:54.780Z,97211.84
2022-10-24T19:08:26.174Z,97213.44
2022-10-24T19:10:56.799Z,97211.56
2022-10-24T19:13:27.654Z,97210.53
2022-10-24T19:16:06.258Z,97210.53
2022-10-24T19:18:36.885Z,97210.25
2022-10-24T19:21:06.040Z,97212.41
2022-10-24T19:23:34.912Z,97211.84
2022-10-24T19:26:03.704Z,97222.19
2022-10-24T19:28:32.689Z,97220.84
2022-10-24T19:31:01.638Z,97208.16
2022-10-24T19:33:30.916Z,97210.28
2022-10-24T19:36:04.026Z,97212.41
2022-10-24T19:38:33.354Z,97208.47
2022-10-24T19:41:02.175Z,97211.56
2022-10-24T19:43:32.895Z,97207.63
2022-10-24T19:46:19.270Z,97214.47
2022-10-24T19:48:49.791Z,97191.38
2022-10-24T19:51:20.275Z,97211.03
2022-10-24T19:53:52.613Z,97215.56
2022-10-24T19:56:29.142Z,97203.97
2022-10-24T19:58:58.379Z,97202.69
2022-10-24T20:01:30.839Z,97206.41
2022-10-24T20:04:01.223Z,97207.72
2022-10-24T20:06:29.998Z,97206.09
2022-10-24T20:08:58.747Z,97210.41
2022-10-24T20:11:27.587Z,97209.59
2022-10-24T20:13:56.406Z,97205.84
2022-10-24T20:16:25.210Z,97203.78
2022-10-24T20:18:54.106Z,97202.19
2022-10-24T20:21:22.935Z,97195.56
2022-10-24T20:23:51.824Z,97197.94
2022-10-24T20:26:24.506Z,97203.78
2022-10-24T20:28:56.087Z,97200.56
2022-10-24T20:31:31.754Z,97188.16
2022-10-24T20:34:07.940Z,97187.91
2022-10-24T20:36:47.732Z,97195.28
2022-10-24T20:39:21.451Z,97194.47
2022-10-24T20:41:53.385Z,97206.09
2022-10-24T20:44:23.343Z,97200.31
2022-10-24T20:46:53.780Z,97206.94
2022-10-24T20:49:23.213Z,97200.84
2022-10-24T20:51:52.534Z,97205.84
2022-10-24T20:54:21.444Z,97201.91
2022-10-24T20:56:50.216Z,97206.63
2022-10-24T20:59:18.999Z,97211.63
2022-10-24T21:01:48.700Z,97202.63
2022-10-24T21:04:20.720Z,97204.75
2022-10-24T21:06:49.909Z,97202.09
2022-10-24T21:09:18.758Z,97204.47
2022-10-24T21:11:47.933Z,97206.81
2022-10-24T21:14:18.636Z,97204.66
2022-10-24T21:16:48.230Z,97204.41
2022-10-24T21:19:17.089Z,97198.84
2022-10-24T21:21:46.146Z,97212.59
2022-10-24T21:24:17.901Z,97203.56
2022-10-24T21:26:46.677Z,97204.34
2022-10-24T21:29:32.098Z,97207.19
2022-10-24T21:32:02.069Z,97221.47
2022-10-24T21:34:34.198Z,97217.75
2022-10-24T21:37:05.292Z,97215.06
2022-10-24T21:39:34.046Z,97209.22
2022-10-24T21:42:02.889Z,97210.00
2022-10-24T21:44:31.912Z,97216.09
2022-10-24T21:47:00.759Z,97219.78
2022-10-24T21:49:29.620Z,97219.78
2022-10-24T21:51:58.575Z,97220.78
2022-10-24T21:54:28.700Z,97216.53
2022-10-24T21:56:57.482Z,97214.63
2022-10-24T21:59:26.369Z,97213.25
2022-10-24T22:01:56.131Z,97203.28
2022-10-24T22:04:25.457Z,97213.91
2022-10-24T22:06:54.540Z,97207.53
2022-10-24T22:09:26.817Z,97207.03
2022-10-24T22:11:58.285Z,97204.38
2022-10-24T22:14:27.260Z,97207.78
2022-10-24T22:16:56.265Z,97195.91
2022-10-24T22:19:25.330Z,97200.91
2022-10-24T22:21:54.212Z,97198.75
2022-10-24T22:24:24.924Z,97206.16
2022-10-24T22:26:54.456Z,97202.72
2022-10-24T22:29:25.176Z,97207.72
2022-10-24T22:31:54.711Z,97206.88
2022-10-24T22:34:26.674Z,97206.84
2022-10-24T22:36:55.541Z,97215.88
2022-10-24T22:39:26.355Z,97213.22
2022-10-24T22:41:56.004Z,97212.66
2022-10-24T22:44:25.505Z,97213.47
2022-10-24T22:47:30.919Z,97207.94
2022-10-24T22:50:19.976Z,97215.53
2022-10-24T22:52:50.545Z,97214.19
2022-10-24T22:55:32.403Z,97214.44
2022-10-24T22:58:01.648Z,97229.22
2022-10-24T23:00:31.910Z,97230.25
2022-10-24T23:03:13.283Z,97220.28
2022-10-24T23:06:17.400Z,97222.34
2022-10-24T23:08:46.719Z,97224.41
2022-10-24T23:11:16.097Z,97223.56
2022-10-24T23:13:45.605Z,97221.66
2022-10-24T23:16:31.380Z,97231.97
2022-10-24T23:19:00.888Z,97227.19
2022-10-24T23:21:46.364Z,97224.72
2022-10-24T23:24:19.672Z,97231.84
2022-10-24T23:27:12.859Z,97227.84
2022-10-24T23:29:44.312Z,97223.88
2022-10-24T23:32:25.184Z,97226.50
2022-10-24T23:34:55.520Z,97219.88
2022-10-24T23:37:42.191Z,97217.78
2022-10-24T23:40:10.958Z,97219.63
2022-10-24T23:42:40.351Z,97209.00
2022-10-24T23:45:18.112Z,97208.84
2022-10-24T23:47:52.689Z,97222.16
2022-10-24T23:51:02.253Z,97217.81
2022-10-24T23:53:51.927Z,97223.78
2022-10-24T23:56:23.788Z,97224.69
2022-10-24T23:58:53.288Z,97219.00
